METAR Data
IDs: Format: Raw Decoded Include TAF

Data at: 0254 UTC 19 Oct 2021

KJBR 190153Z AUTO 00000KT 10SM CLR 12/07 A3014 RMK AO2 SLP204 T01170072 $
KJBR 190053Z AUTO 00000KT 10SM CLR 12/07 A3012 RMK AO2 SLP201 T01220072 $
KJBR 182353Z AUTO 00000KT 10SM CLR 15/07 A3012 RMK AO2 SLP198 T01500067 10228 20150 56008 $
KJBR 182253Z AUTO 19005KT 10SM CLR 20/05 A3013 RMK AO2 SLP200 T02000050 $
KJBR 182153Z AUTO 19007KT 10SM CLR 22/03 A3013 RMK AO2 SLP202 T02220033 $
KJBR 182053Z AUTO VRB05KT 10SM CLR 22/03 A3014 RMK AO2 SLP206 T02220033 56022 $
KJBR 181953Z AUTO 20007KT 8SM CLR 23/04 A3015 RMK AO2 SLP209 T02280039 $
KJBR 181853Z AUTO 10SM CLR 22/04 A3018 RMK AO2 SLP219 T02220044 $
KJBR 181753Z AUTO VRB03KT 10SM CLR 21/04 A3021 RMK AO2 SLP228 T02110044 10217 20056 58017 $
KJBR 181653Z AUTO 22006KT 10SM CLR 21/04 A3024 RMK AO2 SLP239 T02060044 $
KJBR 181553Z AUTO VRB06KT 10SM CLR 19/06 A3026 RMK AO2 SLP245 T01890061 $
KJBR 181453Z AUTO 00000KT 10SM CLR 15/09 A3026 RMK AO2 SLP245 T01500089 52013 $
KJBR 181353Z AUTO 00000KT 10SM CLR 12/08 A3025 RMK AO2 SLP242 T01170078 $
KJBR 181253Z AUTO 00000KT 10SM CLR 08/06 A3023 RMK AO2 SLP237 T00780061 $
KJBR 181153Z AUTO 00000KT 10SM CLR 06/04 A3022 RMK AO2 SLP232 T00560044 10083 20056 53010 $
KJBR 181053Z AUTO 00000KT 10SM CLR 07/05 A3021 RMK AO2 SLP228 T00670050 $
KJBR 180953Z AUTO 00000KT 10SM CLR 07/05 A3019 RMK AO2 SLP223 T00670050 $
KJBR 180853Z AUTO 00000KT 10SM CLR 07/06 A3019 RMK AO2 SLP222 T00720056 58008 $
KJBR 180753Z AUTO 00000KT 10SM CLR 07/06 A3020 RMK AO2 SLP227 T00670056 $
KJBR 180653Z AUTO 00000KT 10SM CLR 07/06 A3021 RMK AO2 SLP229 T00720061 $
KJBR 180553Z AUTO 00000KT 10SM CLR 08/06 A3022 RMK AO2 SLP231 T00780061 10150 20072 402220061 58004 $
KJBR 180453Z AUTO 00000KT 10SM CLR 08/06 A3022 RMK AO2 SLP232 T00830061 $
KJBR 180353Z AUTO 00000KT 10SM CLR 09/06 A3023 RMK AO2 SLP235 T00940061 $
KJBR 180253Z AUTO 00000KT 10SM CLR 09/07 A3023 RMK AO2 SLP235 T00940067 51007 $
KJBR 180153Z AUTO 00000KT 10SM CLR 11/06 A3022 RMK AO2 SLP233 T01110061 $
KJBR 180053Z AUTO 00000KT 10SM CLR 12/06 A3021 RMK AO2 SLP230 T01220061 $
KJBR 172353Z AUTO 00000KT 10SM CLR 16/04 A3021 RMK AO2 SLP228 T01560044 10222 20144 55007 $
KJBR 172253Z AUTO 00000KT 10SM CLR 21/02 A3021 RMK AO2 SLP228 T02060017 $
KJBR 172153Z AUTO VRB04KT 10SM CLR 22/01 A3022 RMK AO2 SLP231 T02220011 $
KJBR 172053Z AUTO 14004KT 10SM CLR 21/01 A3023 RMK AO2 SLP235 T02060006 56022 $
KJBR 171953Z AUTO VRB03KT 10SM CLR 21/01 A3024 RMK AO2 SLP240 T02060011 $
KJBR 171853Z AUTO VRB04KT 10SM CLR 21/01 A3026 RMK AO2 SLP248 T02060006 $
KJBR 171753Z AUTO VRB05KT 10SM CLR 21/01 A3029 RMK AO2 SLP257 T02110011 10211 20067 58010 $
KJBR 171653Z AUTO 33005KT 10SM CLR 20/02 A3032 RMK AO2 SLP264 T02000022 $
KJBR 171553Z AUTO 26003KT 10SM CLR 17/06 A3032 RMK AO2 SLP267 T01720056 $